Time;durP1;ratioP1;P1;durP2;ratioP2;P2;SDS_P1;SDS_P2;PMS_P1;PMS_P2;Temp;Humidity;BMP_temperature;BMP_pressure;BME280_temperature;BME280_humidity;BME280_pressure;Samples;Min_cycle;Max_cycle;Signal;HPM_P1;HPM_P2
2023/05/07 00:00:07;;;;;;;;;;;;;;;10.28;83.92;95397.06;5095310;28;993;-55
2023/05/07 00:02:33;;;;;;;;;;;;;;;10.29;84.19;95398.75;5095063;28;1104;-55
2023/05/07 00:05:00;;;;;;;;;;;;;;;10.38;83.81;95403.22;5095338;28;1032;-55
2023/05/07 00:07:26;;;;;;;;;;;;;;;10.39;84.46;95406.72;5095148;28;1046;-55
2023/05/07 00:09:52;;;;;;;;;;;;;;;10.45;84.25;95404.28;5095056;28;1007;-55
2023/05/07 00:12:18;;;;;;;;;;;;;;;10.54;83.72;95400.66;5094924;28;1235;-55
2023/05/07 00:14:44;;;;;;;;;;;;;;;10.62;84.00;95402.56;5094836;28;1985;-55
2023/05/07 00:17:10;;;;;;;;;;;;;;;10.68;83.87;95399.28;5094828;28;1057;-55
2023/05/07 00:19:36;;;;;;;;;;;;;;;10.71;83.48;95398.94;5095050;28;1009;-55
2023/05/07 00:22:02;;;;;;;;;;;;;;;10.64;84.29;95403.28;5094929;28;976;-55
2023/05/07 00:24:28;;;;;;;;;;;;;;;10.45;85.14;95400.75;5094817;28;1063;-55
2023/05/07 00:26:54;;;;;;;;;;;;;;;10.41;85.76;95402.06;5094983;28;1013;-55
2023/05/07 00:29:20;;;;;;;;;;;;;;;10.50;85.00;95407.31;5094578;28;1088;-55
2023/05/07 00:31:46;;;;;;;;;;;;;;;10.54;85.14;95408.69;5094422;28;1150;-55
2023/05/07 00:34:12;;;;;;;;;;;;;;;10.63;84.40;95401.56;5094671;28;1902;-55
2023/05/07 00:36:38;;;;;;;;;;;;;;;10.59;84.80;95410.91;5094698;28;1029;-55
2023/05/07 00:39:04;;;;;;;;;;;;;;;10.53;85.59;95406.19;5093542;28;1244;-55
2023/05/07 00:41:30;;;;;;;;;;;;;;;10.63;85.56;95417.63;5094657;28;985;-55
2023/05/07 00:43:56;;;;;;;;;;;;;;;10.67;85.51;95413.63;5094296;28;1021;-55
2023/05/07 00:46:23;;;;;;;;;;;;;;;10.76;84.94;95403.84;5094134;28;1108;-55
2023/05/07 00:48:50;;;;;;;;;;;;;;;10.85;84.63;95415.44;5094200;28;1009;-55
2023/05/07 00:51:17;;;;;;;;;;;;;;;10.75;85.39;95411.00;5094557;28;1048;-55
2023/05/07 00:53:43;;;;;;;;;;;;;;;10.74;85.61;95416.53;5094181;28;1910;-54
2023/05/07 00:56:09;;;;;;;;;;;;;;;10.73;86.20;95412.19;5094268;28;1060;-55
2023/05/07 00:58:36;;;;;;;;;;;;;;;10.77;85.08;95415.38;5094179;28;1040;-55
2023/05/07 01:01:02;;;;;;;;;;;;;;;10.63;85.86;95408.75;5094074;28;969;-55
2023/05/07 01:03:28;;;;;;;;;;;;;;;10.71;85.11;95415.00;5094014;28;882;-55
2023/05/07 01:05:55;;;;;;;;;;;;;;;10.73;85.24;95410.31;5093966;28;1171;-55
2023/05/07 01:08:22;;;;;;;;;;;;;;;10.71;85.25;95415.00;5092874;28;1056;-55
2023/05/07 01:10:48;;;;;;;;;;;;;;;10.71;84.66;95409.66;5093947;28;1057;-55
2023/05/07 01:13:15;;;;;;;;;;;;;;;10.70;84.73;95404.47;5084212;28;1986;-55
2023/05/07 01:15:41;;;;;;;;;;;;;;;10.69;85.08;95414.31;5081943;28;1918;-55
2023/05/07 01:18:07;;;;;;;;;;;;;;;10.70;85.09;95418.69;5073891;28;966;-55
2023/05/07 01:20:33;;;;;;;;;;;;;;;10.73;84.68;95414.84;5073704;28;985;-55
2023/05/07 01:23:00;;;;;;;;;;;;;;;10.75;85.06;95412.84;5073900;28;1044;-55
2023/05/07 01:25:26;;;;;;;;;;;;;;;10.78;84.22;95409.88;5073485;28;1069;-55
2023/05/07 01:27:52;;;;;;;;;;;;;;;10.81;84.88;95408.72;5073766;28;1075;-55
2023/05/07 01:30:20;;;;;;;;;;;;;;;10.78;84.92;95409.06;5073424;28;986;-55
2023/05/07 01:32:49;;;;;;;;;;;;;;;10.71;85.68;95411.50;5090124;28;1233;-55
2023/05/07 01:35:18;;;;;;;;;;;;;;;10.42;86.12;95406.41;5093685;28;1938;-55
2023/05/07 01:37:45;;;;;;;;;;;;;;;10.26;86.77;95415.94;5093643;28;970;-55
2023/05/07 01:40:12;;;;;;;;;;;;;;;10.33;86.17;95411.69;5093536;28;926;-55
2023/05/07 01:42:38;;;;;;;;;;;;;;;10.38;86.69;95410.38;5093575;28;1005;-55
2023/05/07 01:45:04;;;;;;;;;;;;;;;10.38;86.63;95407.69;5093423;28;1040;-55
2023/05/07 01:47:31;;;;;;;;;;;;;;;10.40;86.47;95411.09;5093252;28;1076;-55
2023/05/07 01:49:57;;;;;;;;;;;;;;;10.54;86.18;95407.84;5093579;28;972;-55
2023/05/07 01:52:24;;;;;;;;;;;;;;;10.56;85.72;95413.88;5093447;28;1033;-55
2023/05/07 01:54:50;;;;;;;;;;;;;;;10.23;85.83;95413.56;5093380;28;2006;-55
2023/05/07 01:57:16;;;;;;;;;;;;;;;10.09;86.88;95401.59;5096680;28;1073;-55
2023/05/07 01:59:43;;;;;;;;;;;;;;;10.15;86.44;95405.47;5097527;28;1089;-55
2023/05/07 02:02:09;;;;;;;;;;;;;;;10.15;85.91;95411.66;5097468;28;1029;-55
2023/05/07 02:04:35;;;;;;;;;;;;;;;10.14;85.54;95403.78;5097624;28;1359;-55
2023/05/07 02:07:01;;;;;;;;;;;;;;;10.15;85.02;95398.28;5097557;28;1025;-55
2023/05/07 02:09:27;;;;;;;;;;;;;;;9.95;85.82;95402.94;5097351;28;1167;-55
2023/05/07 02:11:53;;;;;;;;;;;;;;;9.82;86.06;95398.94;5097506;28;1319;-55
2023/05/07 02:14:20;;;;;;;;;;;;;;;9.91;86.11;95401.56;5097162;28;1987;-54
2023/05/07 02:16:46;;;;;;;;;;;;;;;9.72;85.90;95399.84;5097579;28;1071;-55
2023/05/07 02:19:12;;;;;;;;;;;;;;;9.54;86.19;95394.47;5097058;28;1041;-55
2023/05/07 02:21:38;;;;;;;;;;;;;;;9.30;87.12;95402.19;5097162;28;1026;-56
2023/05/07 02:24:04;;;;;;;;;;;;;;;9.37;86.54;95392.56;5097258;28;1028;-56
2023/05/07 02:26:30;;;;;;;;;;;;;;;9.27;86.78;95395.28;5097018;28;988;-56
2023/05/07 02:28:56;;;;;;;;;;;;;;;9.19;87.14;95393.34;5096932;28;1217;-56
2023/05/07 02:31:22;;;;;;;;;;;;;;;9.28;86.30;95390.81;5096777;28;1186;-56
2023/05/07 02:33:48;;;;;;;;;;;;;;;9.36;85.63;95393.59;5097047;28;1914;-56
2023/05/07 02:36:14;;;;;;;;;;;;;;;9.33;85.31;95393.88;5096760;28;1065;-56
2023/05/07 02:38:40;;;;;;;;;;;;;;;9.08;85.96;95398.88;5096892;28;969;-56
2023/05/07 02:41:06;;;;;;;;;;;;;;;8.77;86.88;95399.13;5096656;28;1144;-56
2023/05/07 02:43:32;;;;;;;;;;;;;;;8.76;87.11;95399.25;5096572;28;949;-55
2023/05/07 02:46:02;;;;;;;;;;;;;;;8.81;86.74;95393.50;5096894;28;980;-56
2023/05/07 02:48:28;;;;;;;;;;;;;;;8.49;86.77;95394.69;5096537;28;1033;-56
2023/05/07 02:50:54;;;;;;;;;;;;;;;8.35;87.41;95396.75;5096564;28;1029;-56
2023/05/07 02:53:20;;;;;;;;;;;;;;;8.48;87.42;95399.19;5096556;28;1036;-56
2023/05/07 02:55:46;;;;;;;;;;;;;;;8.55;87.27;95400.25;5096473;28;1981;-56
2023/05/07 02:58:12;;;;;;;;;;;;;;;8.64;86.47;95395.91;5096282;28;1116;-56
2023/05/07 03:00:38;;;;;;;;;;;;;;;8.60;86.07;95394.53;5096521;28;1499;-56
2023/05/07 03:03:04;;;;;;;;;;;;;;;8.29;87.34;95397.34;5096287;28;1108;-56
2023/05/07 03:05:30;;;;;;;;;;;;;;;8.29;87.56;95394.69;5096425;28;1287;-57
2023/05/07 03:07:56;;;;;;;;;;;;;;;8.36;87.15;95398.44;5096091;28;992;-57
2023/05/07 03:10:22;;;;;;;;;;;;;;;8.41;86.37;95400.69;5095012;28;1183;-57
2023/05/07 03:12:48;;;;;;;;;;;;;;;8.24;86.88;95402.25;5096195;28;1116;-57
2023/05/07 03:15:14;;;;;;;;;;;;;;;8.20;87.61;95403.50;5096300;28;1906;-57
2023/05/07 03:17:40;;;;;;;;;;;;;;;8.38;87.33;95401.81;5096147;28;1935;-57
2023/05/07 03:20:07;;;;;;;;;;;;;;;8.53;87.04;95398.75;5096265;28;1009;-57
2023/05/07 03:22:33;;;;;;;;;;;;;;;8.51;86.90;95403.38;5096151;28;1028;-57
2023/05/07 03:24:59;;;;;;;;;;;;;;;8.50;86.84;95407.00;5096106;28;964;-57
2023/05/07 03:27:25;;;;;;;;;;;;;;;8.38;86.88;95407.16;5095901;28;1059;-57
2023/05/07 03:29:51;;;;;;;;;;;;;;;8.21;87.36;95407.84;5096189;28;1020;-57
2023/05/07 03:32:17;;;;;;;;;;;;;;;8.20;87.64;95411.50;5095487;28;1373;-56
2023/05/07 03:34:43;;;;;;;;;;;;;;;8.35;87.14;95417.25;5095711;28;1979;-56
2023/05/07 03:37:09;;;;;;;;;;;;;;;8.60;86.23;95416.69;5094719;28;961;-56
2023/05/07 03:39:35;;;;;;;;;;;;;;;8.78;85.92;95414.13;5095791;28;1057;-56
2023/05/07 03:42:02;;;;;;;;;;;;;;;8.82;86.18;95422.69;5095659;28;989;-56
2023/05/07 03:44:28;;;;;;;;;;;;;;;8.91;86.18;95427.13;5095516;28;1043;-56
2023/05/07 03:46:55;;;;;;;;;;;;;;;8.78;85.55;95427.47;5095608;28;1132;-55
2023/05/07 03:49:21;;;;;;;;;;;;;;;8.79;85.19;95426.47;5094282;28;1092;-55
2023/05/07 03:51:47;;;;;;;;;;;;;;;8.63;85.41;95428.03;5095453;28;1057;-55
2023/05/07 03:54:13;;;;;;;;;;;;;;;8.57;86.09;95432.13;5095258;28;1996;-55
2023/05/07 03:56:39;;;;;;;;;;;;;;;8.79;86.38;95430.97;5095381;28;1037;-55
2023/05/07 03:59:05;;;;;;;;;;;;;;;9.02;85.96;95436.81;5095608;28;1039;-55
2023/05/07 04:01:31;;;;;;;;;;;;;;;9.15;85.73;95442.66;5095457;28;1009;-55
2023/05/07 04:03:58;;;;;;;;;;;;;;;9.18;85.48;95442.38;5095483;28;965;-55
2023/05/07 04:06:24;;;;;;;;;;;;;;;9.42;84.48;95449.03;5093960;28;1037;-55
2023/05/07 04:08:50;;;;;;;;;;;;;;;9.68;83.87;95449.19;5095260;28;1043;-55
2023/05/07 04:11:16;;;;;;;;;;;;;;;9.97;82.93;95448.19;5095017;28;1033;-55
2023/05/07 04:13:42;;;;;;;;;;;;;;;10.09;83.24;95452.34;5095241;28;1992;-55
2023/05/07 04:16:08;;;;;;;;;;;;;;;10.22;82.19;95451.13;5095215;28;1040;-55
2023/05/07 04:18:34;;;;;;;;;;;;;;;10.46;82.14;95459.41;5094162;28;1037;-56
2023/05/07 04:21:00;;;;;;;;;;;;;;;10.59;81.52;95455.53;5095080;28;1044;-56
2023/05/07 04:23:26;;;;;;;;;;;;;;;10.69;81.00;95456.28;5094590;28;1338;-55
2023/05/07 04:25:54;;;;;;;;;;;;;;;10.70;81.34;95460.63;5094841;28;1040;-56
2023/05/07 04:28:20;;;;;;;;;;;;;;;10.59;82.52;95463.56;5094704;28;1154;-56
2023/05/07 04:30:46;;;;;;;;;;;;;;;10.69;81.78;95467.81;5094699;28;1221;-56
2023/05/07 04:33:13;;;;;;;;;;;;;;;10.91;82.52;95468.34;5094495;28;1076;-56
2023/05/07 04:35:40;;;;;;;;;;;;;;;10.95;82.62;95475.03;5094617;28;1971;-57
2023/05/07 04:38:06;;;;;;;;;;;;;;;11.05;82.92;95478.47;5094672;28;1035;-57
2023/05/07 04:40:32;;;;;;;;;;;;;;;11.37;80.18;95482.34;5094502;28;1037;-56
2023/05/07 04:42:58;;;;;;;;;;;;;;;11.67;78.81;95474.84;5094425;28;1041;-57
2023/05/07 04:45:24;;;;;;;;;;;;;;;12.00;78.01;95481.19;5093204;28;1093;-56
2023/05/07 04:47:50;;;;;;;;;;;;;;;12.13;78.19;95482.59;5094626;28;1005;-57
2023/05/07 04:50:17;;;;;;;;;;;;;;;12.18;78.28;95485.59;5094332;28;1050;-57
2023/05/07 04:52:43;;;;;;;;;;;;;;;12.19;76.70;95485.44;5094328;28;1037;-57
2023/05/07 04:55:09;;;;;;;;;;;;;;;12.30;77.27;95489.66;5094239;28;1918;-57
2023/05/07 04:57:35;;;;;;;;;;;;;;;12.42;75.42;95496.38;5094428;28;1063;-57
2023/05/07 05:00:01;;;;;;;;;;;;;;;12.53;76.29;95497.94;5094206;28;1034;-57
2023/05/07 05:02:27;;;;;;;;;;;;;;;12.62;75.72;95491.56;5094295;28;1049;-57
2023/05/07 05:04:53;;;;;;;;;;;;;;;12.86;74.62;95492.59;5094244;28;1123;-57
2023/05/07 05:07:19;;;;;;;;;;;;;;;12.97;73.99;95497.63;5094040;28;1091;-57
2023/05/07 05:09:45;;;;;;;;;;;;;;;12.83;73.63;95493.78;5093923;28;1120;-56
2023/05/07 05:12:11;;;;;;;;;;;;;;;12.96;73.84;95487.09;5093941;28;973;-56
2023/05/07 05:14:37;;;;;;;;;;;;;;;13.21;73.07;95495.97;5094125;28;1909;-56
2023/05/07 05:17:03;;;;;;;;;;;;;;;13.25;72.49;95492.75;5092698;28;1041;-56
2023/05/07 05:19:29;;;;;;;;;;;;;;;13.17;71.85;95490.09;5092717;28;1043;-56
2023/05/07 05:21:56;;;;;;;;;;;;;;;13.26;73.36;95489.09;5093823;28;1046;-56
2023/05/07 05:24:22;;;;;;;;;;;;;;;13.40;71.74;95494.81;5093736;28;1100;-56
2023/05/07 05:26:48;;;;;;;;;;;;;;;13.33;70.72;95496.50;5093727;28;1040;-58
2023/05/07 05:29:14;;;;;;;;;;;;;;;13.51;71.82;95496.28;5093865;28;985;-58
2023/05/07 05:31:41;;;;;;;;;;;;;;;13.53;71.71;95494.28;5093372;28;1247;-60
2023/05/07 05:34:07;;;;;;;;;;;;;;;13.94;71.72;95497.69;5093722;28;1992;-59
2023/05/07 05:36:33;;;;;;;;;;;;;;;14.19;68.34;95493.06;5093483;28;1084;-59
2023/05/07 05:38:59;;;;;;;;;;;;;;;14.25;69.51;95503.09;5092465;28;1108;-59
2023/05/07 05:41:25;;;;;;;;;;;;;;;14.35;68.88;95489.44;5092290;28;1378;-59
2023/05/07 05:43:51;;;;;;;;;;;;;;;14.55;67.43;95494.38;5093553;28;1104;-60
2023/05/07 05:46:17;;;;;;;;;;;;;;;14.82;66.41;95501.13;5093611;28;1040;-59
2023/05/07 05:48:44;;;;;;;;;;;;;;;14.79;66.69;95491.56;5093651;28;1320;-59
2023/05/07 05:51:10;;;;;;;;;;;;;;;15.01;66.88;95492.56;5093614;28;1060;-60
2023/05/07 05:53:36;;;;;;;;;;;;;;;15.21;67.70;95494.78;5093529;28;1053;-61
2023/05/07 05:56:03;;;;;;;;;;;;;;;15.49;65.93;95496.88;5093283;28;1917;-61
2023/05/07 05:58:29;;;;;;;;;;;;;;;15.32;66.06;95491.66;5093310;28;1054;-60
2023/05/07 06:00:56;;;;;;;;;;;;;;;15.45;65.89;95495.59;5093553;28;1048;-61
2023/05/07 06:03:22;;;;;;;;;;;;;;;16.23;64.02;95496.13;5092063;28;1077;-57
2023/05/07 06:05:48;;;;;;;;;;;;;;;15.99;63.87;95500.75;5093455;28;1057;-58
2023/05/07 06:08:14;;;;;;;;;;;;;;;16.16;64.02;95498.72;5092012;28;1676;-58
2023/05/07 06:10:40;;;;;;;;;;;;;;;16.34;63.48;95498.34;5091900;28;1383;-57
2023/05/07 06:13:07;;;;;;;;;;;;;;;16.56;62.52;95499.19;5091616;28;1619;-57
2023/05/07 06:15:33;;;;;;;;;;;;;;;16.53;62.36;95491.50;5092983;28;2020;-58
2023/05/07 06:17:59;;;;;;;;;;;;;;;16.67;62.22;95495.19;5093241;28;1100;-57
2023/05/07 06:20:25;;;;;;;;;;;;;;;16.72;61.29;95490.88;5093090;28;1053;-58
2023/05/07 06:22:51;;;;;;;;;;;;;;;16.82;61.33;95498.69;5093226;28;1048;-58
2023/05/07 06:25:17;;;;;;;;;;;;;;;17.45;59.73;95492.63;5092962;28;1331;-58
2023/05/07 06:27:43;;;;;;;;;;;;;;;17.29;60.32;95483.78;5093352;28;1003;-59
2023/05/07 06:30:10;;;;;;;;;;;;;;;17.64;60.29;95486.56;5091861;28;1017;-60
2023/05/07 06:32:36;;;;;;;;;;;;;;;17.88;59.02;95495.28;5092880;28;1293;-61
2023/05/07 06:35:02;;;;;;;;;;;;;;;17.72;58.67;95489.13;5092947;28;1910;-59
2023/05/07 06:37:28;;;;;;;;;;;;;;;17.81;58.81;95487.06;5093091;28;1284;-60
2023/05/07 06:39:54;;;;;;;;;;;;;;;18.16;58.86;95494.41;5075687;28;1985;-61
2023/05/07 06:42:20;;;;;;;;;;;;;;;18.21;57.31;95476.53;5081077;28;2052;-61
2023/05/07 06:44:46;;;;;;;;;;;;;;;18.37;56.43;95478.06;5091090;28;1107;-61
2023/05/07 06:47:12;;;;;;;;;;;;;;;18.41;57.21;95470.38;5096778;28;1051;-60
2023/05/07 06:49:39;;;;;;;;;;;;;;;18.74;56.95;95459.63;5096873;28;973;-59
2023/05/07 06:52:05;;;;;;;;;;;;;;;18.99;56.59;95457.25;5096726;28;1119;-59
2023/05/07 06:54:32;;;;;;;;;;;;;;;19.34;56.92;95467.06;5095291;28;1906;-59
2023/05/07 06:56:58;;;;;;;;;;;;;;;19.11;55.88;95461.00;5096562;28;1112;-61
2023/05/07 06:59:24;;;;;;;;;;;;;;;19.30;55.89;95463.94;5084922;28;988;-59
2023/05/07 07:01:50;;;;;;;;;;;;;;;19.30;54.49;95462.06;5076207;28;1049;-60
2023/05/07 07:04:16;;;;;;;;;;;;;;;19.48;56.01;95458.72;5076147;28;1559;-59
2023/05/07 07:06:42;;;;;;;;;;;;;;;19.62;53.29;95462.25;5076133;28;989;-60
2023/05/07 07:09:08;;;;;;;;;;;;;;;19.76;52.65;95460.38;5075860;28;989;-59
2023/05/07 07:11:34;;;;;;;;;;;;;;;19.80;51.65;95463.53;5074259;28;969;-60
2023/05/07 07:14:00;;;;;;;;;;;;;;;19.98;54.07;95458.28;5073732;28;1913;-59
2023/05/07 07:16:26;;;;;;;;;;;;;;;20.19;50.61;95461.78;5073980;28;977;-59
2023/05/07 07:18:52;;;;;;;;;;;;;;;20.22;52.00;95453.19;5072990;28;1089;-59
2023/05/07 07:21:18;;;;;;;;;;;;;;;20.19;51.81;95453.63;5074576;28;1028;-60
2023/05/07 07:23:44;;;;;;;;;;;;;;;20.30;52.31;95452.97;5075532;28;965;-59
2023/05/07 07:26:10;;;;;;;;;;;;;;;20.63;51.65;95462.88;5075050;28;1069;-58
2023/05/07 07:28:41;;;;;;;;;;;;;;;20.79;50.27;95456.97;5075727;28;981;-59
2023/05/07 07:31:07;;;;;;;;;;;;;;;20.83;51.67;95452.75;5078656;28;1158;-59
2023/05/07 07:33:33;;;;;;;;;;;;;;;20.94;49.80;95453.09;5094648;28;1072;-59
2023/05/07 07:35:59;;;;;;;;;;;;;;;21.19;50.29;95451.25;5095678;28;1902;-59
2023/05/07 07:38:25;;;;;;;;;;;;;;;21.33;50.02;95462.03;5095565;28;1049;-59
2023/05/07 07:40:51;;;;;;;;;;;;;;;21.21;49.88;95454.59;5094658;28;1051;-59
2023/05/07 07:43:17;;;;;;;;;;;;;;;21.45;49.53;95454.84;5094523;28;1068;-59
2023/05/07 07:45:44;;;;;;;;;;;;;;;21.75;49.69;95459.63;5094318;28;1878;-59
2023/05/07 07:48:10;;;;;;;;;;;;;;;21.81;48.19;95462.25;5095643;28;989;-59
2023/05/07 07:50:36;;;;;;;;;;;;;;;21.73;45.92;95461.75;5095441;28;1100;-59
2023/05/07 07:53:02;;;;;;;;;;;;;;;21.64;46.42;95461.19;5094669;28;1088;-59
2023/05/07 07:55:28;;;;;;;;;;;;;;;21.89;46.53;95469.31;5094686;28;1914;-59
2023/05/07 07:57:54;;;;;;;;;;;;;;;21.78;43.18;95461.91;5095347;28;1030;-59
2023/05/07 08:00:20;;;;;;;;;;;;;;;21.99;44.85;95452.50;5095180;28;1037;-59
2023/05/07 08:02:46;;;;;;;;;;;;;;;22.50;44.75;95459.47;5095302;28;1077;-59
2023/05/07 08:05:12;;;;;;;;;;;;;;;22.74;44.76;95456.88;5095190;28;961;-59
2023/05/07 08:07:38;;;;;;;;;;;;;;;22.56;44.97;95449.56;5095066;28;1028;-59
2023/05/07 08:10:04;;;;;;;;;;;;;;;22.79;46.49;95446.94;5095290;28;1067;-59
2023/05/07 08:12:30;;;;;;;;;;;;;;;22.80;44.33;95454.06;5095100;28;966;-59
2023/05/07 08:14:56;;;;;;;;;;;;;;;22.94;43.84;95451.16;5095021;28;2014;-58
2023/05/07 08:17:22;;;;;;;;;;;;;;;23.12;44.42;95445.66;5094968;28;1049;-59
2023/05/07 08:19:48;;;;;;;;;;;;;;;22.70;43.73;95440.13;5094947;28;1044;-59
2023/05/07 08:22:15;;;;;;;;;;;;;;;22.82;44.88;95437.47;5094678;28;1106;-59
2023/05/07 08:24:41;;;;;;;;;;;;;;;22.61;43.77;95441.50;5095064;28;1060;-59
2023/05/07 08:27:07;;;;;;;;;;;;;;;22.51;44.98;95435.78;5095152;28;1056;-59
2023/05/07 08:29:33;;;;;;;;;;;;;;;22.92;45.01;95431.47;5094699;28;1041;-59
2023/05/07 08:35:30;;;;;;;;;;;;;;;22.18;45.60;95426.09;5074198;28;1957;-59
2023/05/07 08:37:57;;;;;;;;;;;;;;;22.31;46.21;95425.97;5073289;28;1000;-59
2023/05/07 08:40:25;;;;;;;;;;;;;;;22.73;43.81;95417.06;5074127;28;1120;-59
2023/05/07 08:42:52;;;;;;;;;;;;;;;23.05;44.73;95414.09;5074170;28;1045;-59
2023/05/07 08:45:19;;;;;;;;;;;;;;;23.50;45.77;95411.69;5073993;28;1143;-59
2023/05/07 08:47:47;;;;;;;;;;;;;;;23.84;42.68;95420.16;5074345;28;1047;-59
2023/05/07 08:50:13;;;;;;;;;;;;;;;24.12;42.43;95426.81;5072989;28;1218;-59
2023/05/07 08:52:39;;;;;;;;;;;;;;;23.96;39.43;95428.38;5074072;28;1038;-59
2023/05/07 08:55:07;;;;;;;;;;;;;;;24.02;40.94;95415.63;5073943;28;1984;-59
2023/05/07 08:57:33;;;;;;;;;;;;;;;23.79;41.71;95409.16;5073842;28;1053;-59
2023/05/07 08:59:59;;;;;;;;;;;;;;;23.93;40.45;95407.81;5073770;28;1069;-59
2023/05/07 09:02:25;;;;;;;;;;;;;;;24.23;42.00;95397.81;5073751;28;1038;-59
2023/05/07 09:04:52;;;;;;;;;;;;;;;24.67;42.02;95403.66;5073747;28;1012;-59
2023/05/07 09:07:19;;;;;;;;;;;;;;;25.08;38.61;95415.34;5073765;28;1036;-59
2023/05/07 09:09:46;;;;;;;;;;;;;;;24.86;38.71;95415.22;5073792;28;1016;-59
2023/05/07 09:12:12;;;;;;;;;;;;;;;24.96;40.15;95409.09;5073644;28;993;-59
2023/05/07 09:14:39;;;;;;;;;;;;;;;25.11;40.71;95403.91;5073533;28;1902;-59
2023/05/07 09:17:05;;;;;;;;;;;;;;;25.35;38.37;95407.38;5073845;28;1021;-59
2023/05/07 09:19:31;;;;;;;;;;;;;;;24.86;37.72;95404.28;5073640;28;1029;-58
2023/05/07 09:22:06;;;;;;;;;;;;;;;23.91;38.59;95401.75;5073741;28;981;-58
2023/05/07 09:24:37;;;;;;;;;;;;;;;23.49;40.39;95392.84;5073520;28;1072;-59
2023/05/07 09:27:04;;;;;;;;;;;;;;;23.17;40.54;95383.06;5073506;28;1044;-58
2023/05/07 09:29:35;;;;;;;;;;;;;;;23.25;41.08;95375.63;5073624;28;989;-59
2023/05/07 09:32:05;;;;;;;;;;;;;;;23.15;39.41;95379.75;5073525;28;1169;-59
2023/05/07 09:34:31;;;;;;;;;;;;;;;24.03;39.99;95374.44;5085264;28;1904;-59
2023/05/07 09:36:58;;;;;;;;;;;;;;;24.37;38.18;95380.06;5093700;28;1027;-59
2023/05/07 09:39:25;;;;;;;;;;;;;;;24.42;39.41;95380.16;5093535;28;957;-59
2023/05/07 09:41:54;;;;;;;;;;;;;;;24.50;37.81;95371.59;5093497;28;1042;-59
2023/05/07 09:44:20;;;;;;;;;;;;;;;25.09;40.00;95363.13;5093590;28;981;-59
2023/05/07 09:46:47;;;;;;;;;;;;;;;25.24;38.19;95367.22;5093646;28;1136;-59
2023/05/07 09:49:20;;;;;;;;;;;;;;;25.55;38.53;95364.97;5092423;28;1927;-59
2023/05/07 09:51:49;;;;;;;;;;;;;;;25.27;35.51;95370.31;5093426;28;1057;-58
2023/05/07 09:54:15;;;;;;;;;;;;;;;24.79;36.67;95365.31;5093202;28;1906;-59
2023/05/07 09:56:42;;;;;;;;;;;;;;;24.56;38.68;95353.41;5093643;28;961;-59
2023/05/07 09:59:10;;;;;;;;;;;;;;;24.68;37.78;95356.09;5093560;28;1020;-59
2023/05/07 10:01:37;;;;;;;;;;;;;;;24.70;35.08;95363.00;5093296;28;1964;-58
2023/05/07 10:04:04;;;;;;;;;;;;;;;24.82;36.97;95353.91;5093212;28;1069;-59
2023/05/07 10:06:30;;;;;;;;;;;;;;;24.66;35.40;95359.09;5091995;28;1025;-59
2023/05/07 10:08:57;;;;;;;;;;;;;;;24.71;36.10;95356.44;5093125;28;999;-59
2023/05/07 10:11:23;;;;;;;;;;;;;;;24.85;33.89;95356.97;5093384;28;960;-58
2023/05/07 10:13:49;;;;;;;;;;;;;;;24.93;35.31;95356.56;5093164;28;1021;-59
2023/05/07 10:16:16;;;;;;;;;;;;;;;25.55;36.08;95354.03;5093167;28;1909;-59
2023/05/07 10:18:43;;;;;;;;;;;;;;;25.48;35.02;95356.97;5097190;28;1040;-59
2023/05/07 10:21:19;;;;;;;;;;;;;;;25.42;35.13;95355.19;5097229;28;1056;-58
2023/05/07 10:23:48;;;;;;;;;;;;;;;25.66;34.42;95356.66;5097396;28;1032;-59
2023/05/07 10:26:16;;;;;;;;;;;;;;;25.83;33.68;95347.59;5097241;28;976;-59
2023/05/07 10:28:44;;;;;;;;;;;;;;;25.45;33.99;95352.78;5097244;28;1008;-58
2023/05/07 10:31:16;;;;;;;;;;;;;;;25.18;33.20;95336.19;5097046;28;1213;-58
2023/05/07 10:33:45;;;;;;;;;;;;;;;25.48;35.25;95335.88;5095595;28;1089;-59
2023/05/07 10:36:11;;;;;;;;;;;;;;;25.49;33.03;95342.19;5096741;28;1910;-58
2023/05/07 10:38:38;;;;;;;;;;;;;;;25.71;34.55;95337.59;5097108;28;977;-58
2023/05/07 10:41:05;;;;;;;;;;;;;;;25.60;34.13;95333.03;5097049;28;1023;-58
2023/05/07 10:43:38;;;;;;;;;;;;;;;25.53;33.41;95329.63;5096718;28;1104;-58
2023/05/07 10:46:18;;;;;;;;;;;;;;;25.45;32.24;95330.06;5096793;28;1039;-58
2023/05/07 10:49:08;;;;;;;;;;;;;;;25.22;33.94;95323.66;5096618;28;1043;-58
2023/05/07 10:51:35;;;;;;;;;;;;;;;25.16;33.48;95315.66;5096535;28;1034;-58
2023/05/07 10:54:10;;;;;;;;;;;;;;;25.03;34.11;95319.53;5096534;28;1979;-58
2023/05/07 10:56:37;;;;;;;;;;;;;;;25.09;35.57;95308.41;5096614;28;1071;-58
2023/05/07 10:59:30;;;;;;;;;;;;;;;25.46;36.23;95313.41;5096475;28;1043;-58
2023/05/07 11:01:57;;;;;;;;;;;;;;;25.29;33.67;95312.59;5096653;28;1029;-58
2023/05/07 11:04:27;;;;;;;;;;;;;;;25.08;32.76;95316.84;5096286;28;1111;-58
2023/05/07 11:07:05;;;;;;;;;;;;;;;25.03;34.59;95312.16;5096467;28;1048;-58
2023/05/07 11:09:50;;;;;;;;;;;;;;;25.04;33.19;95308.34;5096145;28;999;-59
2023/05/07 11:12:35;;;;;;;;;;;;;;;25.22;34.22;95310.00;5096368;28;1025;-58
2023/05/07 11:15:05;;;;;;;;;;;;;;;25.23;33.73;95305.38;5096258;28;1984;-58
2023/05/07 11:17:34;;;;;;;;;;;;;;;25.26;34.75;95308.44;5096068;28;1092;-58
2023/05/07 11:20:02;;;;;;;;;;;;;;;25.20;34.67;95309.41;5094832;28;968;-58
2023/05/07 11:22:31;;;;;;;;;;;;;;;25.24;35.18;95309.78;5096090;28;1159;-58
2023/05/07 11:24:59;;;;;;;;;;;;;;;25.55;35.06;95294.63;5096233;28;1075;-58
2023/05/07 11:27:25;;;;;;;;;;;;;;;25.63;33.82;95302.44;5095834;28;1056;-58
2023/05/07 11:29:51;;;;;;;;;;;;;;;25.74;34.54;95292.44;5094833;28;1006;-58
2023/05/07 11:32:24;;;;;;;;;;;;;;;25.68;33.19;95294.25;5095707;28;1303;-58
2023/05/07 11:34:53;;;;;;;;;;;;;;;25.43;35.19;95294.75;5095603;28;1906;-58
2023/05/07 11:37:20;;;;;;;;;;;;;;;25.49;33.96;95281.97;5095835;28;1012;-58
2023/05/07 11:39:46;;;;;;;;;;;;;;;25.49;33.48;95295.66;5095855;28;1004;-58
2023/05/07 11:42:31;;;;;;;;;;;;;;;25.29;34.38;95287.97;5095698;28;1028;-58
2023/05/07 11:44:57;;;;;;;;;;;;;;;25.01;33.72;95294.34;5095555;28;998;-58
2023/05/07 11:47:23;;;;;;;;;;;;;;;24.77;35.00;95291.72;5095688;28;1038;-59
2023/05/07 11:49:50;;;;;;;;;;;;;;;24.49;34.57;95287.09;5094554;28;997;-58
2023/05/07 11:52:17;;;;;;;;;;;;;;;24.41;36.91;95279.31;5095376;28;1314;-58
2023/05/07 11:54:50;;;;;;;;;;;;;;;24.54;35.46;95284.50;5095338;28;1898;-58
2023/05/07 11:57:16;;;;;;;;;;;;;;;24.82;34.65;95275.41;5095308;28;1052;-58
2023/05/07 11:59:47;;;;;;;;;;;;;;;24.99;35.46;95274.63;5095327;28;1051;-58
2023/05/07 12:02:14;;;;;;;;;;;;;;;25.41;35.22;95266.78;5095429;28;989;-58
2023/05/07 12:04:40;;;;;;;;;;;;;;;25.50;34.70;95261.72;5095411;28;1043;-59
2023/05/07 12:07:11;;;;;;;;;;;;;;;25.17;34.73;95265.31;5095285;28;973;-58
2023/05/07 12:09:37;;;;;;;;;;;;;;;25.11;33.08;95261.66;5095260;28;1045;-58
2023/05/07 12:12:04;;;;;;;;;;;;;;;25.23;33.90;95265.19;5095015;28;1145;-58
2023/05/07 12:14:30;;;;;;;;;;;;;;;25.42;34.82;95254.78;5094904;28;1909;-58
2023/05/07 12:16:56;;;;;;;;;;;;;;;25.55;35.14;95245.34;5095144;28;965;-58
2023/05/07 12:19:22;;;;;;;;;;;;;;;25.68;34.07;95253.19;5095056;28;1016;-58
2023/05/07 12:21:48;;;;;;;;;;;;;;;25.54;33.51;95253.84;5094985;28;1079;-58
2023/05/07 12:24:15;;;;;;;;;;;;;;;25.08;33.30;95260.25;5094861;28;1000;-58
2023/05/07 12:26:41;;;;;;;;;;;;;;;24.75;35.15;95248.22;5094870;28;1074;-58
2023/05/07 12:29:07;;;;;;;;;;;;;;;24.99;35.03;95242.59;5092576;28;1885;-58
2023/05/07 12:31:33;;;;;;;;;;;;;;;25.35;34.87;95234.16;5089195;28;1102;-59
2023/05/07 12:33:59;;;;;;;;;;;;;;;25.61;34.03;95227.09;5078673;28;1984;-58
2023/05/07 12:36:25;;;;;;;;;;;;;;;25.43;34.67;95229.06;5074335;28;1026;-56
2023/05/07 12:38:51;;;;;;;;;;;;;;;25.56;35.28;95227.03;5074485;28;961;-58
2023/05/07 12:41:18;;;;;;;;;;;;;;;25.59;33.64;95221.03;5072658;28;973;-58
2023/05/07 12:43:44;;;;;;;;;;;;;;;25.37;33.50;95226.50;5076208;28;1074;-59
2023/05/07 12:46:13;;;;;;;;;;;;;;;25.10;33.98;95230.75;5094753;28;989;-59
2023/05/07 12:48:43;;;;;;;;;;;;;;;25.10;34.24;95229.94;5093607;28;1487;-56
2023/05/07 12:51:12;;;;;;;;;;;;;;;25.14;33.48;95220.97;5094562;28;1055;-57
2023/05/07 12:53:43;;;;;;;;;;;;;;;25.00;33.75;95216.91;5094297;28;1100;-58
2023/05/07 12:56:09;;;;;;;;;;;;;;;25.14;33.85;95204.53;5094062;28;1905;-59
2023/05/07 12:58:36;;;;;;;;;;;;;;;25.35;34.49;95210.34;5094313;28;1632;-59
2023/05/07 13:01:06;;;;;;;;;;;;;;;25.31;33.62;95206.47;5094417;28;977;-59